sensor_id;sensor_type;location;lat;lon;timestamp;P1;durP1;ratioP1;P2;durP2;ratioP2
73428;SDS011;61643;49.564;17.412;2023-08-30T00:00:55;1.83;;;1.50;;
73428;SDS011;61643;49.564;17.412;2023-08-30T00:03:21;2.67;;;1.50;;
73428;SDS011;61643;49.564;17.412;2023-08-30T00:05:47;3.33;;;1.45;;
73428;SDS011;61643;49.564;17.412;2023-08-30T00:08:13;2.20;;;1.33;;
73428;SDS011;61643;49.564;17.412;2023-08-30T00:10:44;1.67;;;1.50;;
73428;SDS011;61643;49.564;17.412;2023-08-30T00:13:10;2.42;;;1.52;;
73428;SDS011;61643;49.564;17.412;2023-08-30T00:15:38;3.63;;;1.70;;
73428;SDS011;61643;49.564;17.412;2023-08-30T00:18:04;3.15;;;1.65;;
73428;SDS011;61643;49.564;17.412;2023-08-30T00:20:30;3.25;;;1.73;;
73428;SDS011;61643;49.564;17.412;2023-08-30T00:22:56;2.15;;;1.60;;
73428;SDS011;61643;49.564;17.412;2023-08-30T00:25:23;4.60;;;1.67;;
73428;SDS011;61643;49.564;17.412;2023-08-30T00:27:49;3.55;;;1.52;;
73428;SDS011;61643;49.564;17.412;2023-08-30T00:30:15;3.08;;;1.50;;
73428;SDS011;61643;49.564;17.412;2023-08-30T00:32:41;3.13;;;1.70;;
73428;SDS011;61643;49.564;17.412;2023-08-30T00:35:07;3.33;;;1.45;;
73428;SDS011;61643;49.564;17.412;2023-08-30T00:37:33;2.55;;;1.60;;
73428;SDS011;61643;49.564;17.412;2023-08-30T00:39:59;2.20;;;1.50;;
73428;SDS011;61643;49.564;17.412;2023-08-30T00:42:25;5.75;;;1.45;;
73428;SDS011;61643;49.564;17.412;2023-08-30T00:44:52;2.58;;;1.35;;
73428;SDS011;61643;49.564;17.412;2023-08-30T00:47:18;2.55;;;1.60;;
73428;SDS011;61643;49.564;17.412;2023-08-30T00:49:45;3.88;;;1.50;;
73428;SDS011;61643;49.564;17.412;2023-08-30T00:52:11;3.80;;;1.70;;
73428;SDS011;61643;49.564;17.412;2023-08-30T00:54:37;2.25;;;1.50;;
73428;SDS011;61643;49.564;17.412;2023-08-30T00:57:04;2.88;;;1.50;;
73428;SDS011;61643;49.564;17.412;2023-08-30T00:59:30;3.97;;;1.80;;
73428;SDS011;61643;49.564;17.412;2023-08-30T01:04:24;3.13;;;1.45;;
73428;SDS011;61643;49.564;17.412;2023-08-30T01:06:51;4.15;;;1.60;;
73428;SDS011;61643;49.564;17.412;2023-08-30T01:09:17;4.85;;;1.83;;
73428;SDS011;61643;49.564;17.412;2023-08-30T01:14:38;1.98;;;1.63;;
73428;SDS011;61643;49.564;17.412;2023-08-30T01:17:09;3.90;;;1.50;;
73428;SDS011;61643;49.564;17.412;2023-08-30T01:20:03;1.80;;;1.58;;
73428;SDS011;61643;49.564;17.412;2023-08-30T01:23:07;2.60;;;1.90;;
73428;SDS011;61643;49.564;17.412;2023-08-30T01:25:57;4.53;;;1.70;;
73428;SDS011;61643;49.564;17.412;2023-08-30T01:28:50;3.83;;;1.60;;
73428;SDS011;61643;49.564;17.412;2023-08-30T01:31:18;6.15;;;1.95;;
73428;SDS011;61643;49.564;17.412;2023-08-30T01:33:47;2.90;;;1.90;;
73428;SDS011;61643;49.564;17.412;2023-08-30T01:36:14;3.58;;;1.75;;
73428;SDS011;61643;49.564;17.412;2023-08-30T01:38:40;3.30;;;1.98;;
73428;SDS011;61643;49.564;17.412;2023-08-30T01:41:07;3.35;;;2.13;;
73428;SDS011;61643;49.564;17.412;2023-08-30T01:43:33;2.55;;;1.85;;
73428;SDS011;61643;49.564;17.412;2023-08-30T01:46:00;2.05;;;1.80;;
73428;SDS011;61643;49.564;17.412;2023-08-30T01:48:27;2.20;;;1.75;;
73428;SDS011;61643;49.564;17.412;2023-08-30T01:50:55;3.15;;;1.92;;
73428;SDS011;61643;49.564;17.412;2023-08-30T01:53:24;5.55;;;2.00;;
73428;SDS011;61643;49.564;17.412;2023-08-30T01:55:51;3.13;;;2.00;;
73428;SDS011;61643;49.564;17.412;2023-08-30T01:58:18;4.10;;;2.08;;
73428;SDS011;61643;49.564;17.412;2023-08-30T02:00:44;2.58;;;2.13;;
73428;SDS011;61643;49.564;17.412;2023-08-30T02:03:10;2.55;;;2.10;;
73428;SDS011;61643;49.564;17.412;2023-08-30T02:05:39;6.13;;;1.92;;
73428;SDS011;61643;49.564;17.412;2023-08-30T02:08:16;2.85;;;2.00;;
73428;SDS011;61643;49.564;17.412;2023-08-30T02:10:45;5.47;;;2.55;;
73428;SDS011;61643;49.564;17.412;2023-08-30T02:13:18;5.30;;;2.25;;
73428;SDS011;61643;49.564;17.412;2023-08-30T02:15:47;6.22;;;2.40;;
73428;SDS011;61643;49.564;17.412;2023-08-30T02:20:40;2.63;;;1.92;;
73428;SDS011;61643;49.564;17.412;2023-08-30T02:23:08;4.57;;;2.00;;
73428;SDS011;61643;49.564;17.412;2023-08-30T02:25:35;5.80;;;2.33;;
73428;SDS011;61643;49.564;17.412;2023-08-30T02:28:01;2.88;;;2.10;;
73428;SDS011;61643;49.564;17.412;2023-08-30T02:30:27;4.47;;;2.50;;
73428;SDS011;61643;49.564;17.412;2023-08-30T02:32:53;3.50;;;2.60;;
73428;SDS011;61643;49.564;17.412;2023-08-30T02:35:18;5.32;;;2.25;;
73428;SDS011;61643;49.564;17.412;2023-08-30T02:37:44;3.60;;;2.58;;
73428;SDS011;61643;49.564;17.412;2023-08-30T02:40:11;5.85;;;2.53;;
73428;SDS011;61643;49.564;17.412;2023-08-30T02:42:37;4.85;;;2.45;;
73428;SDS011;61643;49.564;17.412;2023-08-30T02:45:03;5.45;;;2.30;;
73428;SDS011;61643;49.564;17.412;2023-08-30T02:47:29;3.45;;;2.08;;
73428;SDS011;61643;49.564;17.412;2023-08-30T02:49:55;4.85;;;2.70;;
73428;SDS011;61643;49.564;17.412;2023-08-30T02:52:21;5.78;;;2.20;;
73428;SDS011;61643;49.564;17.412;2023-08-30T02:54:47;3.50;;;2.00;;
73428;SDS011;61643;49.564;17.412;2023-08-30T02:57:13;6.38;;;2.10;;
73428;SDS011;61643;49.564;17.412;2023-08-30T02:59:39;4.18;;;2.30;;
73428;SDS011;61643;49.564;17.412;2023-08-30T03:02:05;3.85;;;2.10;;
73428;SDS011;61643;49.564;17.412;2023-08-30T03:04:31;3.28;;;2.10;;
73428;SDS011;61643;49.564;17.412;2023-08-30T03:06:57;4.10;;;1.90;;
73428;SDS011;61643;49.564;17.412;2023-08-30T03:09:23;3.95;;;1.63;;
73428;SDS011;61643;49.564;17.412;2023-08-30T03:11:49;2.72;;;1.92;;
73428;SDS011;61643;49.564;17.412;2023-08-30T03:14:15;3.30;;;2.13;;
73428;SDS011;61643;49.564;17.412;2023-08-30T03:16:42;4.38;;;2.00;;
73428;SDS011;61643;49.564;17.412;2023-08-30T03:19:10;2.88;;;1.98;;
73428;SDS011;61643;49.564;17.412;2023-08-30T03:21:36;3.33;;;1.90;;
73428;SDS011;61643;49.564;17.412;2023-08-30T03:24:02;3.28;;;1.70;;
73428;SDS011;61643;49.564;17.412;2023-08-30T03:26:28;2.35;;;1.80;;
73428;SDS011;61643;49.564;17.412;2023-08-30T03:28:54;3.50;;;1.70;;
73428;SDS011;61643;49.564;17.412;2023-08-30T03:31:21;3.17;;;1.70;;
73428;SDS011;61643;49.564;17.412;2023-08-30T03:33:48;6.30;;;1.77;;
73428;SDS011;61643;49.564;17.412;2023-08-30T03:36:15;4.93;;;2.30;;
73428;SDS011;61643;49.564;17.412;2023-08-30T03:38:42;3.40;;;1.90;;
73428;SDS011;61643;49.564;17.412;2023-08-30T03:41:10;2.55;;;1.67;;
73428;SDS011;61643;49.564;17.412;2023-08-30T03:43:36;4.55;;;2.15;;
73428;SDS011;61643;49.564;17.412;2023-08-30T03:46:02;4.03;;;2.15;;
73428;SDS011;61643;49.564;17.412;2023-08-30T03:48:28;3.63;;;2.20;;
73428;SDS011;61643;49.564;17.412;2023-08-30T03:50:55;3.50;;;2.38;;
73428;SDS011;61643;49.564;17.412;2023-08-30T03:53:22;3.05;;;1.67;;
73428;SDS011;61643;49.564;17.412;2023-08-30T03:55:48;3.00;;;2.00;;
73428;SDS011;61643;49.564;17.412;2023-08-30T03:58:15;3.72;;;2.03;;
73428;SDS011;61643;49.564;17.412;2023-08-30T04:00:41;3.92;;;1.90;;
73428;SDS011;61643;49.564;17.412;2023-08-30T04:03:08;3.08;;;1.92;;
73428;SDS011;61643;49.564;17.412;2023-08-30T04:05:35;3.67;;;1.90;;
73428;SDS011;61643;49.564;17.412;2023-08-30T04:08:02;8.18;;;2.05;;
73428;SDS011;61643;49.564;17.412;2023-08-30T04:10:29;5.22;;;1.98;;
73428;SDS011;61643;49.564;17.412;2023-08-30T04:12:59;3.42;;;2.33;;
73428;SDS011;61643;49.564;17.412;2023-08-30T04:15:25;4.47;;;2.17;;
73428;SDS011;61643;49.564;17.412;2023-08-30T04:17:51;5.60;;;2.15;;
73428;SDS011;61643;49.564;17.412;2023-08-30T04:20:17;4.68;;;2.40;;
73428;SDS011;61643;49.564;17.412;2023-08-30T04:22:43;7.35;;;2.40;;
73428;SDS011;61643;49.564;17.412;2023-08-30T04:25:09;5.57;;;2.40;;
73428;SDS011;61643;49.564;17.412;2023-08-30T04:27:36;4.50;;;2.42;;
73428;SDS011;61643;49.564;17.412;2023-08-30T04:30:02;9.60;;;2.92;;
73428;SDS011;61643;49.564;17.412;2023-08-30T04:32:28;4.38;;;2.45;;
73428;SDS011;61643;49.564;17.412;2023-08-30T04:34:54;4.13;;;2.50;;
73428;SDS011;61643;49.564;17.412;2023-08-30T04:37:20;3.85;;;2.50;;
73428;SDS011;61643;49.564;17.412;2023-08-30T04:39:49;4.15;;;2.08;;
73428;SDS011;61643;49.564;17.412;2023-08-30T04:42:16;3.83;;;2.17;;
73428;SDS011;61643;49.564;17.412;2023-08-30T04:44:42;4.75;;;2.47;;
73428;SDS011;61643;49.564;17.412;2023-08-30T04:47:07;4.35;;;2.47;;
73428;SDS011;61643;49.564;17.412;2023-08-30T04:49:33;4.57;;;2.20;;
73428;SDS011;61643;49.564;17.412;2023-08-30T04:51:59;9.85;;;2.30;;
73428;SDS011;61643;49.564;17.412;2023-08-30T04:54:25;2.88;;;1.85;;
73428;SDS011;61643;49.564;17.412;2023-08-30T04:56:51;4.03;;;1.70;;
73428;SDS011;61643;49.564;17.412;2023-08-30T04:59:17;5.85;;;2.10;;
73428;SDS011;61643;49.564;17.412;2023-08-30T05:01:43;3.50;;;2.05;;
73428;SDS011;61643;49.564;17.412;2023-08-30T05:04:10;4.65;;;1.85;;
73428;SDS011;61643;49.564;17.412;2023-08-30T05:06:36;3.25;;;1.98;;
73428;SDS011;61643;49.564;17.412;2023-08-30T05:09:02;3.33;;;1.80;;
73428;SDS011;61643;49.564;17.412;2023-08-30T05:11:28;4.10;;;2.10;;
73428;SDS011;61643;49.564;17.412;2023-08-30T05:16:39;3.25;;;2.00;;
73428;SDS011;61643;49.564;17.412;2023-08-30T05:19:05;2.90;;;1.98;;
73428;SDS011;61643;49.564;17.412;2023-08-30T05:21:31;3.20;;;1.67;;
73428;SDS011;61643;49.564;17.412;2023-08-30T05:23:57;2.80;;;1.75;;
73428;SDS011;61643;49.564;17.412;2023-08-30T05:26:23;2.72;;;1.80;;
73428;SDS011;61643;49.564;17.412;2023-08-30T05:28:49;3.50;;;1.48;;
73428;SDS011;61643;49.564;17.412;2023-08-30T05:31:15;3.30;;;1.23;;
73428;SDS011;61643;49.564;17.412;2023-08-30T05:33:41;2.08;;;1.30;;
73428;SDS011;61643;49.564;17.412;2023-08-30T05:36:07;2.83;;;1.20;;
73428;SDS011;61643;49.564;17.412;2023-08-30T05:38:33;2.35;;;1.10;;
73428;SDS011;61643;49.564;17.412;2023-08-30T05:40:59;1.23;;;1.10;;
73428;SDS011;61643;49.564;17.412;2023-08-30T05:43:25;2.42;;;1.20;;
73428;SDS011;61643;49.564;17.412;2023-08-30T05:45:51;2.60;;;1.27;;
73428;SDS011;61643;49.564;17.412;2023-08-30T05:48:17;2.30;;;1.00;;
73428;SDS011;61643;49.564;17.412;2023-08-30T05:50:43;1.50;;;0.93;;
73428;SDS011;61643;49.564;17.412;2023-08-30T05:53:10;2.83;;;1.40;;
73428;SDS011;61643;49.564;17.412;2023-08-30T05:55:36;2.67;;;1.38;;
73428;SDS011;61643;49.564;17.412;2023-08-30T05:58:03;3.20;;;1.70;;
73428;SDS011;61643;49.564;17.412;2023-08-30T06:00:29;1.65;;;1.15;;
73428;SDS011;61643;49.564;17.412;2023-08-30T06:02:55;1.40;;;1.25;;
73428;SDS011;61643;49.564;17.412;2023-08-30T06:05:20;1.20;;;1.10;;
73428;SDS011;61643;49.564;17.412;2023-08-30T06:07:46;1.60;;;1.33;;
73428;SDS011;61643;49.564;17.412;2023-08-30T06:10:12;2.88;;;1.58;;
73428;SDS011;61643;49.564;17.412;2023-08-30T06:12:39;2.78;;;1.38;;
73428;SDS011;61643;49.564;17.412;2023-08-30T06:15:05;2.95;;;1.48;;
73428;SDS011;61643;49.564;17.412;2023-08-30T06:17:32;1.92;;;1.30;;
73428;SDS011;61643;49.564;17.412;2023-08-30T06:19:58;1.75;;;1.08;;
73428;SDS011;61643;49.564;17.412;2023-08-30T06:22:24;1.80;;;1.10;;
73428;SDS011;61643;49.564;17.412;2023-08-30T06:24:50;1.30;;;1.20;;
73428;SDS011;61643;49.564;17.412;2023-08-30T06:27:15;2.03;;;1.00;;
73428;SDS011;61643;49.564;17.412;2023-08-30T06:29:42;2.92;;;1.20;;
73428;SDS011;61643;49.564;17.412;2023-08-30T06:32:08;1.40;;;1.02;;
73428;SDS011;61643;49.564;17.412;2023-08-30T06:34:34;1.70;;;1.20;;
73428;SDS011;61643;49.564;17.412;2023-08-30T06:37:00;2.50;;;1.02;;
73428;SDS011;61643;49.564;17.412;2023-08-30T06:39:31;2.05;;;1.23;;
73428;SDS011;61643;49.564;17.412;2023-08-30T06:41:58;1.95;;;1.20;;
73428;SDS011;61643;49.564;17.412;2023-08-30T06:44:24;1.77;;;1.30;;
73428;SDS011;61643;49.564;17.412;2023-08-30T06:46:50;3.47;;;1.30;;
73428;SDS011;61643;49.564;17.412;2023-08-30T06:49:16;2.10;;;1.08;;
73428;SDS011;61643;49.564;17.412;2023-08-30T06:51:43;2.00;;;1.17;;
73428;SDS011;61643;49.564;17.412;2023-08-30T06:54:09;2.03;;;1.27;;
73428;SDS011;61643;49.564;17.412;2023-08-30T06:56:35;1.83;;;1.10;;
73428;SDS011;61643;49.564;17.412;2023-08-30T06:59:01;1.77;;;0.93;;
73428;SDS011;61643;49.564;17.412;2023-08-30T07:01:27;1.70;;;1.20;;
73428;SDS011;61643;49.564;17.412;2023-08-30T07:03:53;1.67;;;1.10;;
73428;SDS011;61643;49.564;17.412;2023-08-30T07:06:19;1.38;;;1.05;;
73428;SDS011;61643;49.564;17.412;2023-08-30T07:08:45;1.65;;;1.00;;
73428;SDS011;61643;49.564;17.412;2023-08-30T07:11:11;1.67;;;1.10;;
73428;SDS011;61643;49.564;17.412;2023-08-30T07:13:37;1.60;;;1.13;;
73428;SDS011;61643;49.564;17.412;2023-08-30T07:16:03;2.55;;;1.10;;
73428;SDS011;61643;49.564;17.412;2023-08-30T07:18:29;1.67;;;1.08;;
73428;SDS011;61643;49.564;17.412;2023-08-30T07:20:55;2.50;;;0.90;;
73428;SDS011;61643;49.564;17.412;2023-08-30T07:23:21;0.90;;;0.80;;
73428;SDS011;61643;49.564;17.412;2023-08-30T07:25:47;1.67;;;0.95;;
73428;SDS011;61643;49.564;17.412;2023-08-30T07:28:13;1.17;;;0.82;;
73428;SDS011;61643;49.564;17.412;2023-08-30T07:30:44;1.63;;;0.85;;
73428;SDS011;61643;49.564;17.412;2023-08-30T07:33:10;2.88;;;1.00;;
73428;SDS011;61643;49.564;17.412;2023-08-30T07:35:36;3.15;;;0.90;;
73428;SDS011;61643;49.564;17.412;2023-08-30T07:38:06;10.98;;;1.20;;
73428;SDS011;61643;49.564;17.412;2023-08-30T07:40:32;1.48;;;0.88;;
73428;SDS011;61643;49.564;17.412;2023-08-30T07:42:58;3.03;;;0.80;;
73428;SDS011;61643;49.564;17.412;2023-08-30T07:45:24;1.77;;;0.70;;
73428;SDS011;61643;49.564;17.412;2023-08-30T07:47:50;0.95;;;0.70;;
73428;SDS011;61643;49.564;17.412;2023-08-30T07:50:16;2.70;;;0.85;;
73428;SDS011;61643;49.564;17.412;2023-08-30T07:52:42;1.70;;;0.82;;
73428;SDS011;61643;49.564;17.412;2023-08-30T07:55:08;1.83;;;0.70;;
73428;SDS011;61643;49.564;17.412;2023-08-30T07:57:35;2.22;;;0.70;;
73428;SDS011;61643;49.564;17.412;2023-08-30T08:00:00;1.20;;;0.60;;
73428;SDS011;61643;49.564;17.412;2023-08-30T08:02:26;0.98;;;0.63;;
73428;SDS011;61643;49.564;17.412;2023-08-30T08:04:52;0.95;;;0.85;;
73428;SDS011;61643;49.564;17.412;2023-08-30T08:07:18;0.60;;;0.60;;
73428;SDS011;61643;49.564;17.412;2023-08-30T08:09:44;1.23;;;0.70;;
73428;SDS011;61643;49.564;17.412;2023-08-30T08:12:10;0.75;;;0.55;;
73428;SDS011;61643;49.564;17.412;2023-08-30T08:14:36;0.93;;;0.70;;
73428;SDS011;61643;49.564;17.412;2023-08-30T08:17:02;1.67;;;0.52;;
73428;SDS011;61643;49.564;17.412;2023-08-30T08:19:29;2.30;;;0.60;;
73428;SDS011;61643;49.564;17.412;2023-08-30T08:21:55;0.80;;;0.70;;
73428;SDS011;61643;49.564;17.412;2023-08-30T08:24:21;1.83;;;0.80;;
73428;SDS011;61643;49.564;17.412;2023-08-30T08:26:47;2.05;;;0.82;;
73428;SDS011;61643;49.564;17.412;2023-08-30T08:29:13;1.45;;;0.70;;
73428;SDS011;61643;49.564;17.412;2023-08-30T08:31:39;0.60;;;0.60;;
73428;SDS011;61643;49.564;17.412;2023-08-30T08:34:06;0.98;;;0.70;;
73428;SDS011;61643;49.564;17.412;2023-08-30T08:36:34;0.88;;;0.60;;
73428;SDS011;61643;49.564;17.412;2023-08-30T08:39:00;0.60;;;0.60;;
73428;SDS011;61643;49.564;17.412;2023-08-30T08:41:27;0.80;;;0.70;;
73428;SDS011;61643;49.564;17.412;2023-08-30T08:44:00;0.85;;;0.70;;
73428;SDS011;61643;49.564;17.412;2023-08-30T08:46:26;1.60;;;0.80;;
73428;SDS011;61643;49.564;17.412;2023-08-30T08:48:55;0.85;;;0.70;;
73428;SDS011;61643;49.564;17.412;2023-08-30T08:51:22;1.52;;;0.93;;
73428;SDS011;61643;49.564;17.412;2023-08-30T08:53:50;1.35;;;0.80;;
73428;SDS011;61643;49.564;17.412;2023-08-30T08:56:16;1.92;;;0.80;;
73428;SDS011;61643;49.564;17.412;2023-08-30T08:58:43;1.00;;;0.90;;
73428;SDS011;61643;49.564;17.412;2023-08-30T09:01:09;2.72;;;0.73;;
73428;SDS011;61643;49.564;17.412;2023-08-30T09:03:36;1.30;;;1.20;;
73428;SDS011;61643;49.564;17.412;2023-08-30T09:06:02;1.83;;;1.00;;
73428;SDS011;61643;49.564;17.412;2023-08-30T09:08:29;1.92;;;1.00;;
73428;SDS011;61643;49.564;17.412;2023-08-30T09:10:55;1.30;;;1.20;;
73428;SDS011;61643;49.564;17.412;2023-08-30T09:13:21;2.72;;;0.90;;
73428;SDS011;61643;49.564;17.412;2023-08-30T09:15:48;1.45;;;1.00;;
73428;SDS011;61643;49.564;17.412;2023-08-30T09:18:17;1.63;;;1.02;;
73428;SDS011;61643;49.564;17.412;2023-08-30T09:20:44;1.52;;;0.82;;
73428;SDS011;61643;49.564;17.412;2023-08-30T09:23:17;1.00;;;0.90;;
73428;SDS011;61643;49.564;17.412;2023-08-30T09:25:54;1.52;;;1.00;;
73428;SDS011;61643;49.564;17.412;2023-08-30T09:28:20;2.28;;;1.17;;
73428;SDS011;61643;49.564;17.412;2023-08-30T09:30:50;3.10;;;1.48;;
73428;SDS011;61643;49.564;17.412;2023-08-30T09:33:23;1.38;;;1.20;;
73428;SDS011;61643;49.564;17.412;2023-08-30T09:35:54;2.97;;;0.95;;
73428;SDS011;61643;49.564;17.412;2023-08-30T09:38:20;2.10;;;1.10;;
73428;SDS011;61643;49.564;17.412;2023-08-30T09:40:46;1.98;;;1.05;;
73428;SDS011;61643;49.564;17.412;2023-08-30T09:43:13;3.17;;;1.10;;
73428;SDS011;61643;49.564;17.412;2023-08-30T09:45:41;1.23;;;1.02;;
73428;SDS011;61643;49.564;17.412;2023-08-30T09:48:07;2.13;;;1.00;;
73428;SDS011;61643;49.564;17.412;2023-08-30T09:50:34;1.38;;;1.08;;
73428;SDS011;61643;49.564;17.412;2023-08-30T09:53:03;1.45;;;1.20;;
73428;SDS011;61643;49.564;17.412;2023-08-30T09:55:33;1.63;;;1.20;;
73428;SDS011;61643;49.564;17.412;2023-08-30T09:58:01;2.08;;;1.13;;
73428;SDS011;61643;49.564;17.412;2023-08-30T10:00:30;1.10;;;1.00;;
73428;SDS011;61643;49.564;17.412;2023-08-30T10:05:24;2.30;;;1.20;;
73428;SDS011;61643;49.564;17.412;2023-08-30T10:07:54;1.23;;;1.00;;
73428;SDS011;61643;49.564;17.412;2023-08-30T10:10:21;1.77;;;1.20;;
73428;SDS011;61643;49.564;17.412;2023-08-30T10:12:49;1.90;;;1.20;;
73428;SDS011;61643;49.564;17.412;2023-08-30T10:15:15;2.53;;;1.30;;
73428;SDS011;61643;49.564;17.412;2023-08-30T10:17:45;1.98;;;1.17;;
73428;SDS011;61643;49.564;17.412;2023-08-30T10:20:12;1.35;;;1.25;;
73428;SDS011;61643;49.564;17.412;2023-08-30T10:22:38;3.55;;;1.20;;
73428;SDS011;61643;49.564;17.412;2023-08-30T10:25:07;1.33;;;1.13;;
73428;SDS011;61643;49.564;17.412;2023-08-30T10:27:37;1.27;;;1.17;;
73428;SDS011;61643;49.564;17.412;2023-08-30T10:30:07;2.22;;;1.70;;
73428;SDS011;61643;49.564;17.412;2023-08-30T10:32:41;2.35;;;1.40;;
73428;SDS011;61643;49.564;17.412;2023-08-30T10:35:10;1.67;;;1.35;;
73428;SDS011;61643;49.564;17.412;2023-08-30T10:37:38;2.17;;;1.50;;
73428;SDS011;61643;49.564;17.412;2023-08-30T10:40:04;3.28;;;1.48;;
73428;SDS011;61643;49.564;17.412;2023-08-30T10:42:34;4.07;;;1.60;;
73428;SDS011;61643;49.564;17.412;2023-08-30T10:45:01;2.15;;;1.20;;
73428;SDS011;61643;49.564;17.412;2023-08-30T10:47:28;2.25;;;1.40;;
73428;SDS011;61643;49.564;17.412;2023-08-30T10:49:59;2.15;;;1.17;;
73428;SDS011;61643;49.564;17.412;2023-08-30T10:52:28;1.70;;;1.10;;
73428;SDS011;61643;49.564;17.412;2023-08-30T10:57:30;1.75;;;1.10;;
73428;SDS011;61643;49.564;17.412;2023-08-30T11:02:50;2.75;;;1.20;;
73428;SDS011;61643;49.564;17.412;2023-08-30T11:05:17;3.50;;;1.60;;
73428;SDS011;61643;49.564;17.412;2023-08-30T11:07:44;2.10;;;1.35;;
73428;SDS011;61643;49.564;17.412;2023-08-30T11:10:11;2.78;;;1.30;;
73428;SDS011;61643;49.564;17.412;2023-08-30T11:12:39;2.53;;;1.27;;
73428;SDS011;61643;49.564;17.412;2023-08-30T11:15:07;2.70;;;1.58;;
73428;SDS011;61643;49.564;17.412;2023-08-30T11:17:34;2.35;;;1.58;;
73428;SDS011;61643;49.564;17.412;2023-08-30T11:20:07;3.20;;;1.30;;
73428;SDS011;61643;49.564;17.412;2023-08-30T11:22:37;3.05;;;1.63;;
73428;SDS011;61643;49.564;17.412;2023-08-30T11:25:05;1.42;;;1.17;;
73428;SDS011;61643;49.564;17.412;2023-08-30T11:27:31;1.95;;;1.40;;
73428;SDS011;61643;49.564;17.412;2023-08-30T11:30:00;1.00;;;0.90;;
73428;SDS011;61643;49.564;17.412;2023-08-30T11:32:34;2.13;;;1.17;;
73428;SDS011;61643;49.564;17.412;2023-08-30T11:35:01;2.60;;;1.35;;
73428;SDS011;61643;49.564;17.412;2023-08-30T11:37:28;1.67;;;1.23;;
73428;SDS011;61643;49.564;17.412;2023-08-30T11:39:55;2.83;;;1.45;;
73428;SDS011;61643;49.564;17.412;2023-08-30T11:42:21;2.95;;;1.67;;
73428;SDS011;61643;49.564;17.412;2023-08-30T11:44:47;2.47;;;1.30;;
73428;SDS011;61643;49.564;17.412;2023-08-30T11:47:24;2.65;;;1.40;;
73428;SDS011;61643;49.564;17.412;2023-08-30T11:49:54;4.30;;;1.30;;
73428;SDS011;61643;49.564;17.412;2023-08-30T11:52:22;1.52;;;1.40;;
73428;SDS011;61643;49.564;17.412;2023-08-30T11:54:49;1.88;;;1.38;;
73428;SDS011;61643;49.564;17.412;2023-08-30T11:57:16;1.50;;;1.10;;
73428;SDS011;61643;49.564;17.412;2023-08-30T11:59:42;3.70;;;1.40;;
73428;SDS011;61643;49.564;17.412;2023-08-30T12:02:09;1.90;;;1.30;;
73428;SDS011;61643;49.564;17.412;2023-08-30T12:04:40;2.25;;;1.38;;
73428;SDS011;61643;49.564;17.412;2023-08-30T12:07:07;4.80;;;1.85;;
73428;SDS011;61643;49.564;17.412;2023-08-30T12:09:34;1.80;;;1.38;;
73428;SDS011;61643;49.564;17.412;2023-08-30T12:12:06;2.70;;;1.27;;
73428;SDS011;61643;49.564;17.412;2023-08-30T12:14:36;1.27;;;1.00;;
73428;SDS011;61643;49.564;17.412;2023-08-30T12:17:03;2.45;;;1.27;;
73428;SDS011;61643;49.564;17.412;2023-08-30T12:19:29;1.42;;;1.10;;
73428;SDS011;61643;49.564;17.412;2023-08-30T12:22:02;0.85;;;0.82;;
73428;SDS011;61643;49.564;17.412;2023-08-30T12:24:39;1.00;;;0.90;;
73428;SDS011;61643;49.564;17.412;2023-08-30T12:27:14;1.10;;;0.80;;
73428;SDS011;61643;49.564;17.412;2023-08-30T12:29:40;0.85;;;0.80;;
73428;SDS011;61643;49.564;17.412;2023-08-30T12:32:07;1.83;;;0.88;;
73428;SDS011;61643;49.564;17.412;2023-08-30T12:34:33;1.02;;;0.95;;
73428;SDS011;61643;49.564;17.412;2023-08-30T12:36:59;1.40;;;1.23;;
73428;SDS011;61643;49.564;17.412;2023-08-30T12:39:27;5.05;;;1.00;;
73428;SDS011;61643;49.564;17.412;2023-08-30T12:41:53;1.83;;;1.30;;
73428;SDS011;61643;49.564;17.412;2023-08-30T12:44:19;1.92;;;1.40;;
73428;SDS011;61643;49.564;17.412;2023-08-30T12:46:45;1.52;;;1.33;;
73428;SDS011;61643;49.564;17.412;2023-08-30T12:49:11;2.15;;;1.23;;
73428;SDS011;61643;49.564;17.412;2023-08-30T12:51:37;2.55;;;1.73;;
73428;SDS011;61643;49.564;17.412;2023-08-30T12:54:03;1.80;;;1.27;;
73428;SDS011;61643;49.564;17.412;2023-08-30T12:56:29;1.90;;;0.88;;
73428;SDS011;61643;49.564;17.412;2023-08-30T12:58:55;1.45;;;1.05;;
73428;SDS011;61643;49.564;17.412;2023-08-30T13:01:21;1.20;;;1.10;;
73428;SDS011;61643;49.564;17.412;2023-08-30T13:03:48;1.63;;;1.10;;
73428;SDS011;61643;49.564;17.412;2023-08-30T13:06:14;1.90;;;1.08;;
73428;SDS011;61643;49.564;17.412;2023-08-30T13:08:40;3.20;;;1.10;;
73428;SDS011;61643;49.564;17.412;2023-08-30T13:11:06;0.90;;;0.80;;
73428;SDS011;61643;49.564;17.412;2023-08-30T13:13:31;0.85;;;0.85;;
73428;SDS011;61643;49.564;17.412;2023-08-30T13:15:57;0.98;;;0.90;;
73428;SDS011;61643;49.564;17.412;2023-08-30T13:18:23;0.90;;;0.80;;
73428;SDS011;61643;49.564;17.412;2023-08-30T13:20:49;1.10;;;1.00;;
73428;SDS011;61643;49.564;17.412;2023-08-30T13:23:19;1.00;;;0.90;;
73428;SDS011;61643;49.564;17.412;2023-08-30T13:25:47;1.48;;;1.17;;
73428;SDS011;61643;49.564;17.412;2023-08-30T13:28:14;1.55;;;0.93;;
73428;SDS011;61643;49.564;17.412;2023-08-30T13:30:44;1.33;;;0.85;;
73428;SDS011;61643;49.564;17.412;2023-08-30T13:33:10;1.23;;;1.10;;
73428;SDS011;61643;49.564;17.412;2023-08-30T13:35:40;1.42;;;1.10;;
73428;SDS011;61643;49.564;17.412;2023-08-30T13:38:06;0.80;;;0.80;;
73428;SDS011;61643;49.564;17.412;2023-08-30T13:40:32;1.92;;;1.50;;
73428;SDS011;61643;49.564;17.412;2023-08-30T13:42:58;1.58;;;1.10;;
73428;SDS011;61643;49.564;17.412;2023-08-30T13:45:24;2.47;;;1.27;;
73428;SDS011;61643;49.564;17.412;2023-08-30T13:47:50;2.13;;;1.02;;
73428;SDS011;61643;49.564;17.412;2023-08-30T13:50:18;1.40;;;1.20;;
73428;SDS011;61643;49.564;17.412;2023-08-30T13:52:44;1.15;;;0.98;;
73428;SDS011;61643;49.564;17.412;2023-08-30T13:55:10;1.77;;;1.20;;
73428;SDS011;61643;49.564;17.412;2023-08-30T13:57:36;2.10;;;1.23;;
73428;SDS011;61643;49.564;17.412;2023-08-30T14:00:02;1.58;;;0.98;;
73428;SDS011;61643;49.564;17.412;2023-08-30T14:02:33;1.10;;;1.00;;
73428;SDS011;61643;49.564;17.412;2023-08-30T14:04:59;0.85;;;0.82;;
73428;SDS011;61643;49.564;17.412;2023-08-30T14:07:25;1.30;;;1.10;;
73428;SDS011;61643;49.564;17.412;2023-08-30T14:09:51;1.45;;;1.17;;
73428;SDS011;61643;49.564;17.412;2023-08-30T14:12:18;1.10;;;1.00;;
73428;SDS011;61643;49.564;17.412;2023-08-30T14:14:44;2.25;;;1.13;;
73428;SDS011;61643;49.564;17.412;2023-08-30T14:17:10;0.73;;;0.73;;
73428;SDS011;61643;49.564;17.412;2023-08-30T14:19:37;1.10;;;0.95;;
73428;SDS011;61643;49.564;17.412;2023-08-30T14:22:03;1.70;;;1.10;;
73428;SDS011;61643;49.564;17.412;2023-08-30T14:27:00;1.50;;;1.27;;
73428;SDS011;61643;49.564;17.412;2023-08-30T14:29:26;1.27;;;1.17;;
73428;SDS011;61643;49.564;17.412;2023-08-30T14:31:52;2.88;;;1.20;;
73428;SDS011;61643;49.564;17.412;2023-08-30T14:34:19;2.38;;;1.17;;
73428;SDS011;61643;49.564;17.412;2023-08-30T14:39:13;1.88;;;1.42;;
73428;SDS011;61643;49.564;17.412;2023-08-30T14:41:40;1.30;;;1.10;;
73428;SDS011;61643;49.564;17.412;2023-08-30T14:44:06;1.30;;;1.15;;
73428;SDS011;61643;49.564;17.412;2023-08-30T14:46:33;1.42;;;1.33;;
73428;SDS011;61643;49.564;17.412;2023-08-30T14:48:59;2.60;;;1.48;;
73428;SDS011;61643;49.564;17.412;2023-08-30T14:51:25;4.18;;;1.70;;
73428;SDS011;61643;49.564;17.412;2023-08-30T14:53:51;1.73;;;1.48;;
73428;SDS011;61643;49.564;17.412;2023-08-30T14:56:17;3.55;;;1.80;;